Delta Virtual Airport Information Service

Rovaniemi Airport

ICAO: EFRO Country: Finland
Latitude: 66.5617 Longitude: 25.8308
Latest Arrival : DAC6996 (BIKF-EFRO) Latest Departure : DAC6996 (EFRO-KBOS)


WX CaptureLIVE
Data provided by noaa.gov | Fetched at 04:16:14

METAR : EFRO 030950Z 05009KT 9999 FEW034 M08/M11 Q1007

TAF : EFRO 030830Z 0309/0409 05008KT CAVOK TEMPO 0309/0310 1500 SHSN VV010


Runway Data for EFRO
Data provided by openaviationdata.com

Runway ID Mag Var Hdg Length Elevation Surface ILS Freq ILS Id ILS Slope
3 9 27° 9816 ft 645 ft Asphalt -- -- --
21 9 207° 9816 ft 645 ft Asphalt 111.7 RO 3

Rovaniemi Airport, Finland
Use only for reference purposes



Not for navigational purposes.